sensor_id;sensor_type;location;lat;lon;timestamp;pressure;altitude;pressure_sealevel;temperature;humidity
63819;BME280;49970;54.976;73.248;2023-02-19T00:01:59;101350.19;;;-16.57;76.66
63819;BME280;49970;54.976;73.248;2023-02-19T00:04:25;101355.09;;;-16.60;76.62
63819;BME280;49970;54.976;73.248;2023-02-19T00:06:54;101359.06;;;-16.65;76.48
63819;BME280;49970;54.976;73.248;2023-02-19T00:09:20;101355.41;;;-16.70;76.87
63819;BME280;49970;54.976;73.248;2023-02-19T00:11:47;101348.34;;;-16.76;76.60
63819;BME280;49970;54.976;73.248;2023-02-19T00:14:20;101347.41;;;-16.78;76.76
63819;BME280;49970;54.976;73.248;2023-02-19T00:16:46;101355.81;;;-16.79;76.83
63819;BME280;49970;54.976;73.248;2023-02-19T00:19:22;101350.22;;;-16.88;76.23
63819;BME280;49970;54.976;73.248;2023-02-19T00:21:54;101355.31;;;-16.88;76.50
63819;BME280;49970;54.976;73.248;2023-02-19T00:24:20;101362.09;;;-16.87;76.51
63819;BME280;49970;54.976;73.248;2023-02-19T00:26:47;101354.88;;;-16.96;76.14
63819;BME280;49970;54.976;73.248;2023-02-19T00:29:16;101364.28;;;-16.93;76.29
63819;BME280;49970;54.976;73.248;2023-02-19T00:31:43;101363.16;;;-16.98;76.20
63819;BME280;49970;54.976;73.248;2023-02-19T00:34:15;101367.16;;;-17.02;76.64
63819;BME280;49970;54.976;73.248;2023-02-19T00:36:41;101365.19;;;-17.07;76.83
63819;BME280;49970;54.976;73.248;2023-02-19T00:39:12;101369.44;;;-17.06;76.61
63819;BME280;49970;54.976;73.248;2023-02-19T00:41:50;101369.19;;;-17.11;76.76
63819;BME280;49970;54.976;73.248;2023-02-19T00:44:16;101369.97;;;-17.12;76.00
63819;BME280;49970;54.976;73.248;2023-02-19T00:46:45;101366.47;;;-17.14;75.74
63819;BME280;49970;54.976;73.248;2023-02-19T00:49:17;101358.63;;;-17.19;76.07
63819;BME280;49970;54.976;73.248;2023-02-19T00:51:45;101375.56;;;-17.18;76.63
63819;BME280;49970;54.976;73.248;2023-02-19T00:54:12;101377.31;;;-17.17;76.62
63819;BME280;49970;54.976;73.248;2023-02-19T00:56:39;101377.31;;;-17.17;75.70
63819;BME280;49970;54.976;73.248;2023-02-19T00:59:05;101380.53;;;-17.19;76.11
63819;BME280;49970;54.976;73.248;2023-02-19T01:01:31;101374.59;;;-17.20;76.11
63819;BME280;49970;54.976;73.248;2023-02-19T01:04:07;101377.94;;;-17.21;76.25
63819;BME280;49970;54.976;73.248;2023-02-19T01:06:39;101372.06;;;-17.20;76.41
63819;BME280;49970;54.976;73.248;2023-02-19T01:09:06;101379.69;;;-17.20;76.48
63819;BME280;49970;54.976;73.248;2023-02-19T01:11:32;101377.06;;;-17.21;75.97
63819;BME280;49970;54.976;73.248;2023-02-19T01:14:00;101368.50;;;-17.23;76.49
63819;BME280;49970;54.976;73.248;2023-02-19T01:16:26;101378.53;;;-17.25;75.84
63819;BME280;49970;54.976;73.248;2023-02-19T01:18:53;101379.34;;;-17.26;76.54
63819;BME280;49970;54.976;73.248;2023-02-19T01:21:22;101383.41;;;-17.28;76.54
63819;BME280;49970;54.976;73.248;2023-02-19T01:23:49;101384.28;;;-17.27;75.99
63819;BME280;49970;54.976;73.248;2023-02-19T01:26:19;101383.41;;;-17.28;76.47
63819;BME280;49970;54.976;73.248;2023-02-19T01:28:46;101386.81;;;-17.27;76.43
63819;BME280;49970;54.976;73.248;2023-02-19T01:31:15;101388.41;;;-17.29;76.08
63819;BME280;49970;54.976;73.248;2023-02-19T01:33:46;101382.47;;;-17.30;76.60
63819;BME280;49970;54.976;73.248;2023-02-19T01:36:24;101384.81;;;-17.33;75.73
63819;BME280;49970;54.976;73.248;2023-02-19T01:38:50;101386.28;;;-17.37;75.83
63819;BME280;49970;54.976;73.248;2023-02-19T01:41:20;101379.38;;;-17.39;76.12
63819;BME280;49970;54.976;73.248;2023-02-19T01:44:01;101380.97;;;-17.41;76.34
63819;BME280;49970;54.976;73.248;2023-02-19T01:46:33;101369.72;;;-17.46;76.32
63819;BME280;49970;54.976;73.248;2023-02-19T01:49:10;101383.31;;;-17.44;75.93
63819;BME280;49970;54.976;73.248;2023-02-19T01:51:56;101371.69;;;-17.55;76.08
63819;BME280;49970;54.976;73.248;2023-02-19T01:54:35;101387.56;;;-17.58;75.80
63819;BME280;49970;54.976;73.248;2023-02-19T01:57:20;101385.47;;;-17.65;75.78
63819;BME280;49970;54.976;73.248;2023-02-19T01:59:52;101389.47;;;-17.83;75.90
63819;BME280;49970;54.976;73.248;2023-02-19T02:02:24;101387.16;;;-17.94;75.99
63819;BME280;49970;54.976;73.248;2023-02-19T02:04:58;101386.22;;;-17.96;76.70
63819;BME280;49970;54.976;73.248;2023-02-19T02:07:25;101385.94;;;-18.00;75.84
63819;BME280;49970;54.976;73.248;2023-02-19T02:10:10;101391.00;;;-18.00;75.82
63819;BME280;49970;54.976;73.248;2023-02-19T02:12:50;101389.22;;;-18.01;76.83
63819;BME280;49970;54.976;73.248;2023-02-19T02:15:17;101403.72;;;-17.99;76.68
63819;BME280;49970;54.976;73.248;2023-02-19T02:18:00;101403.63;;;-18.00;76.88
63819;BME280;49970;54.976;73.248;2023-02-19T02:26:15;101415.53;;;-18.13;76.30
63819;BME280;49970;54.976;73.248;2023-02-19T02:32:10;101419.31;;;-18.19;76.38
63819;BME280;49970;54.976;73.248;2023-02-19T02:34:48;101415.44;;;-18.27;77.22
63819;BME280;49970;54.976;73.248;2023-02-19T02:37:17;101419.63;;;-18.28;76.52
63819;BME280;49970;54.976;73.248;2023-02-19T02:39:45;101423.16;;;-18.26;75.91
63819;BME280;49970;54.976;73.248;2023-02-19T02:42:12;101414.84;;;-18.23;76.07
63819;BME280;49970;54.976;73.248;2023-02-19T02:45:32;101419.31;;;-18.19;75.83
63819;BME280;49970;54.976;73.248;2023-02-19T02:48:38;101405.44;;;-18.26;76.70
63819;BME280;49970;54.976;73.248;2023-02-19T02:54:07;101414.97;;;-18.22;76.44
63819;BME280;49970;54.976;73.248;2023-02-19T02:56:54;101416.50;;;-18.24;76.18
63819;BME280;49970;54.976;73.248;2023-02-19T02:59:30;101419.03;;;-18.24;75.48
63819;BME280;49970;54.976;73.248;2023-02-19T03:02:16;101411.19;;;-18.28;75.57
63819;BME280;49970;54.976;73.248;2023-02-19T03:05:05;101413.97;;;-18.24;76.56
63819;BME280;49970;54.976;73.248;2023-02-19T03:08:06;101418.16;;;-18.24;76.14
63819;BME280;49970;54.976;73.248;2023-02-19T03:13:26;101413.78;;;-18.14;76.17
63819;BME280;49970;54.976;73.248;2023-02-19T03:16:18;101418.25;;;-18.09;75.87
63819;BME280;49970;54.976;73.248;2023-02-19T03:19:06;101417.47;;;-18.08;76.21
63819;BME280;49970;54.976;73.248;2023-02-19T03:22:00;101415.91;;;-18.06;76.94
63819;BME280;49970;54.976;73.248;2023-02-19T03:24:44;101414.34;;;-18.04;76.74
63819;BME280;49970;54.976;73.248;2023-02-19T03:27:35;101415.56;;;-17.98;76.34
63819;BME280;49970;54.976;73.248;2023-02-19T03:30:17;101417.50;;;-17.94;76.10
63819;BME280;49970;54.976;73.248;2023-02-19T03:32:48;101425.28;;;-17.91;76.28
63819;BME280;49970;54.976;73.248;2023-02-19T03:35:21;101428.88;;;-17.87;76.32
63819;BME280;49970;54.976;73.248;2023-02-19T03:38:02;101424.03;;;-17.84;75.92
63819;BME280;49970;54.976;73.248;2023-02-19T03:44:33;101424.13;;;-17.68;76.99
63819;BME280;49970;54.976;73.248;2023-02-19T03:48:47;101423.69;;;-17.61;75.81
63819;BME280;49970;54.976;73.248;2023-02-19T03:52:51;101425.13;;;-17.51;76.07
63819;BME280;49970;54.976;73.248;2023-02-19T03:56:19;101426.53;;;-17.41;75.68
63819;BME280;49970;54.976;73.248;2023-02-19T04:03:51;101424.91;;;-17.26;76.24
63819;BME280;49970;54.976;73.248;2023-02-19T04:07:46;101429.53;;;-17.19;75.59
63819;BME280;49970;54.976;73.248;2023-02-19T04:11:39;101428.50;;;-17.07;75.47
63819;BME280;49970;54.976;73.248;2023-02-19T04:15:31;101415.47;;;-16.99;75.98
63819;BME280;49970;54.976;73.248;2023-02-19T04:19:26;101428.16;;;-16.84;75.80
63819;BME280;49970;54.976;73.248;2023-02-19T04:22:57;101423.69;;;-16.73;75.68
63819;BME280;49970;54.976;73.248;2023-02-19T04:25:27;101431.88;;;-16.63;75.44
63819;BME280;49970;54.976;73.248;2023-02-19T04:27:58;101430.78;;;-16.51;75.47
63819;BME280;49970;54.976;73.248;2023-02-19T04:30:25;101436.28;;;-16.44;75.39
63819;BME280;49970;54.976;73.248;2023-02-19T04:33:01;101429.97;;;-16.36;75.22
63819;BME280;49970;54.976;73.248;2023-02-19T04:35:27;101430.41;;;-16.28;75.19
63819;BME280;49970;54.976;73.248;2023-02-19T04:38:03;101435.03;;;-16.21;75.43
63819;BME280;49970;54.976;73.248;2023-02-19T04:40:30;101431.25;;;-16.13;75.18
63819;BME280;49970;54.976;73.248;2023-02-19T04:42:56;101430.75;;;-16.05;75.15
63819;BME280;49970;54.976;73.248;2023-02-19T04:45:32;101431.09;;;-15.99;74.87
63819;BME280;49970;54.976;73.248;2023-02-19T04:47:58;101437.13;;;-15.97;74.69
63819;BME280;49970;54.976;73.248;2023-02-19T04:50:25;101434.75;;;-15.94;75.19
63819;BME280;49970;54.976;73.248;2023-02-19T04:53:01;101438.16;;;-15.94;75.04
63819;BME280;49970;54.976;73.248;2023-02-19T04:55:38;101441.66;;;-15.92;74.68
63819;BME280;49970;54.976;73.248;2023-02-19T04:58:10;101434.38;;;-15.86;74.51
63819;BME280;49970;54.976;73.248;2023-02-19T05:00:50;101440.41;;;-15.84;74.17
63819;BME280;49970;54.976;73.248;2023-02-19T05:03:16;101431.25;;;-15.80;74.89
63819;BME280;49970;54.976;73.248;2023-02-19T05:05:47;101431.66;;;-15.72;74.39
63819;BME280;49970;54.976;73.248;2023-02-19T05:08:14;101435.25;;;-15.69;74.73
63819;BME280;49970;54.976;73.248;2023-02-19T05:10:49;101435.41;;;-15.66;74.95
63819;BME280;49970;54.976;73.248;2023-02-19T05:13:16;101441.41;;;-15.64;74.92
63819;BME280;49970;54.976;73.248;2023-02-19T05:15:53;101438.22;;;-15.60;74.60
63819;BME280;49970;54.976;73.248;2023-02-19T05:18:21;101438.56;;;-15.53;75.01
63819;BME280;49970;54.976;73.248;2023-02-19T05:20:47;101438.97;;;-15.46;74.08
63819;BME280;49970;54.976;73.248;2023-02-19T05:23:13;101443.25;;;-15.45;73.79
63819;BME280;49970;54.976;73.248;2023-02-19T05:25:39;101446.19;;;-15.37;73.87
63819;BME280;49970;54.976;73.248;2023-02-19T05:28:05;101446.88;;;-15.40;73.82
63819;BME280;49970;54.976;73.248;2023-02-19T05:30:51;101444.56;;;-15.35;74.51
63819;BME280;49970;54.976;73.248;2023-02-19T05:33:20;101444.81;;;-15.30;73.92
63819;BME280;49970;54.976;73.248;2023-02-19T05:35:57;101435.63;;;-15.28;74.71
63819;BME280;49970;54.976;73.248;2023-02-19T05:38:28;101442.84;;;-15.20;74.40
63819;BME280;49970;54.976;73.248;2023-02-19T05:40:54;101446.78;;;-15.09;74.05
63819;BME280;49970;54.976;73.248;2023-02-19T05:43:20;101434.97;;;-15.08;74.37
63819;BME280;49970;54.976;73.248;2023-02-19T05:45:57;101447.03;;;-15.04;73.75
63819;BME280;49970;54.976;73.248;2023-02-19T05:48:23;101446.44;;;-14.98;73.63
63819;BME280;49970;54.976;73.248;2023-02-19T05:50:50;101450.00;;;-14.95;74.70
63819;BME280;49970;54.976;73.248;2023-02-19T05:53:21;101447.63;;;-14.92;73.49
63819;BME280;49970;54.976;73.248;2023-02-19T05:55:52;101444.56;;;-14.85;73.31
63819;BME280;49970;54.976;73.248;2023-02-19T05:58:24;101456.00;;;-14.76;73.33
63819;BME280;49970;54.976;73.248;2023-02-19T06:00:51;101458.00;;;-14.71;74.87
63819;BME280;49970;54.976;73.248;2023-02-19T06:03:18;101464.00;;;-14.69;73.68
63819;BME280;49970;54.976;73.248;2023-02-19T06:05:54;101463.41;;;-14.63;74.50
63819;BME280;49970;54.976;73.248;2023-02-19T06:08:26;101459.59;;;-14.55;74.72
63819;BME280;49970;54.976;73.248;2023-02-19T06:10:52;101460.88;;;-14.45;74.12
63819;BME280;49970;54.976;73.248;2023-02-19T06:13:18;101469.66;;;-14.39;73.52
63819;BME280;49970;54.976;73.248;2023-02-19T06:15:54;101461.31;;;-14.36;73.53
63819;BME280;49970;54.976;73.248;2023-02-19T06:18:21;101469.88;;;-14.34;74.85
63819;BME280;49970;54.976;73.248;2023-02-19T06:20:47;101465.66;;;-14.34;74.43
63819;BME280;49970;54.976;73.248;2023-02-19T06:23:18;101471.13;;;-14.26;73.48
63819;BME280;49970;54.976;73.248;2023-02-19T06:25:49;101462.84;;;-14.22;73.67
63819;BME280;49970;54.976;73.248;2023-02-19T06:28:15;101459.50;;;-14.21;74.17
63819;BME280;49970;54.976;73.248;2023-02-19T06:30:41;101443.22;;;-14.24;74.26
63819;BME280;49970;54.976;73.248;2023-02-19T06:33:07;101459.94;;;-14.12;73.83
63819;BME280;49970;54.976;73.248;2023-02-19T06:35:33;101462.69;;;-14.07;74.43
63819;BME280;49970;54.976;73.248;2023-02-19T06:38:07;101459.34;;;-14.06;75.06
63819;BME280;49970;54.976;73.248;2023-02-19T06:40:43;101471.34;;;-14.03;74.85
63819;BME280;49970;54.976;73.248;2023-02-19T06:43:11;101460.97;;;-14.08;74.81
63819;BME280;49970;54.976;73.248;2023-02-19T06:45:42;101454.75;;;-14.13;74.27
63819;BME280;49970;54.976;73.248;2023-02-19T06:48:18;101462.91;;;-14.02;73.25
63819;BME280;49970;54.976;73.248;2023-02-19T06:50:45;101460.50;;;-13.99;73.24
63819;BME280;49970;54.976;73.248;2023-02-19T06:53:15;101462.44;;;-13.94;74.12
63819;BME280;49970;54.976;73.248;2023-02-19T06:55:41;101451.59;;;-13.90;73.42
63819;BME280;49970;54.976;73.248;2023-02-19T06:58:12;101456.69;;;-13.90;73.45
63819;BME280;49970;54.976;73.248;2023-02-19T07:00:38;101454.16;;;-13.90;74.19
63819;BME280;49970;54.976;73.248;2023-02-19T07:03:04;101456.03;;;-13.86;74.07
63819;BME280;49970;54.976;73.248;2023-02-19T07:05:31;101458.78;;;-13.81;74.13
63819;BME280;49970;54.976;73.248;2023-02-19T07:07:57;101454.88;;;-13.74;73.97
63819;BME280;49970;54.976;73.248;2023-02-19T07:10:23;101461.91;;;-13.69;73.50
63819;BME280;49970;54.976;73.248;2023-02-19T07:12:54;101461.09;;;-13.68;74.11
63819;BME280;49970;54.976;73.248;2023-02-19T07:15:21;101445.22;;;-13.62;74.96
63819;BME280;49970;54.976;73.248;2023-02-19T07:17:58;101445.44;;;-13.58;74.00
63819;BME280;49970;54.976;73.248;2023-02-19T07:20:29;101443.13;;;-13.51;74.88
63819;BME280;49970;54.976;73.248;2023-02-19T07:23:05;101439.00;;;-13.49;74.41
63819;BME280;49970;54.976;73.248;2023-02-19T07:25:32;101433.94;;;-13.48;73.99
63819;BME280;49970;54.976;73.248;2023-02-19T07:27:58;101427.19;;;-13.47;74.04
63819;BME280;49970;54.976;73.248;2023-02-19T07:30:29;101428.25;;;-13.42;75.06
63819;BME280;49970;54.976;73.248;2023-02-19T07:33:00;101431.00;;;-13.38;73.89
63819;BME280;49970;54.976;73.248;2023-02-19T07:35:27;101426.78;;;-13.37;74.37
63819;BME280;49970;54.976;73.248;2023-02-19T07:37:53;101429.25;;;-13.39;73.98
63819;BME280;49970;54.976;73.248;2023-02-19T07:40:26;101434.44;;;-13.37;74.92
63819;BME280;49970;54.976;73.248;2023-02-19T07:42:53;101436.38;;;-13.32;74.23
63819;BME280;49970;54.976;73.248;2023-02-19T07:45:19;101440.84;;;-13.26;75.31
63819;BME280;49970;54.976;73.248;2023-02-19T07:47:45;101431.59;;;-13.24;74.78
63819;BME280;49970;54.976;73.248;2023-02-19T07:50:11;101429.13;;;-13.21;73.62
63819;BME280;49970;54.976;73.248;2023-02-19T07:52:42;101429.13;;;-13.21;73.84
63819;BME280;49970;54.976;73.248;2023-02-19T07:55:19;101432.50;;;-13.22;73.84
63819;BME280;49970;54.976;73.248;2023-02-19T07:58:15;101436.88;;;-13.19;73.56
63819;BME280;49970;54.976;73.248;2023-02-19T08:02:18;101429.91;;;-13.23;74.31
63819;BME280;49970;54.976;73.248;2023-02-19T08:06:16;101417.34;;;-13.19;75.01
63819;BME280;49970;54.976;73.248;2023-02-19T08:08:46;101415.84;;;-13.14;73.75
63819;BME280;49970;54.976;73.248;2023-02-19T08:11:17;101412.47;;;-13.13;74.37
63819;BME280;49970;54.976;73.248;2023-02-19T08:14:05;101411.75;;;-13.10;73.65
63819;BME280;49970;54.976;73.248;2023-02-19T08:16:36;101410.88;;;-13.11;74.37
63819;BME280;49970;54.976;73.248;2023-02-19T08:19:06;101405.16;;;-13.05;73.68
63819;BME280;49970;54.976;73.248;2023-02-19T08:21:38;101409.53;;;-13.02;74.18
63819;BME280;49970;54.976;73.248;2023-02-19T08:24:09;101411.25;;;-13.01;73.37
63819;BME280;49970;54.976;73.248;2023-02-19T08:26:38;101407.13;;;-12.99;74.45
63819;BME280;49970;54.976;73.248;2023-02-19T08:29:09;101412.28;;;-12.98;73.68
63819;BME280;49970;54.976;73.248;2023-02-19T08:31:38;101409.78;;;-12.96;74.13
63819;BME280;49970;54.976;73.248;2023-02-19T08:34:19;101412.44;;;-12.93;74.17
63819;BME280;49970;54.976;73.248;2023-02-19T08:36:50;101409.91;;;-12.93;75.03
63819;BME280;49970;54.976;73.248;2023-02-19T08:39:20;101421.72;;;-12.95;74.81
63819;BME280;49970;54.976;73.248;2023-02-19T08:41:52;101418.22;;;-12.97;74.77
63819;BME280;49970;54.976;73.248;2023-02-19T08:44:22;101419.72;;;-13.02;74.08
63819;BME280;49970;54.976;73.248;2023-02-19T08:46:52;101422.09;;;-13.07;73.82
63819;BME280;49970;54.976;73.248;2023-02-19T08:49:25;101424.81;;;-13.02;74.38
63819;BME280;49970;54.976;73.248;2023-02-19T08:52:04;101418.19;;;-12.99;75.40
63819;BME280;49970;54.976;73.248;2023-02-19T08:54:46;101422.59;;;-12.95;75.06
63819;BME280;49970;54.976;73.248;2023-02-19T08:57:17;101407.97;;;-12.99;74.21
63819;BME280;49970;54.976;73.248;2023-02-19T08:59:47;101419.09;;;-12.97;74.28
63819;BME280;49970;54.976;73.248;2023-02-19T09:02:16;101420.84;;;-12.96;75.32
63819;BME280;49970;54.976;73.248;2023-02-19T09:04:47;101416.63;;;-12.95;75.51
63819;BME280;49970;54.976;73.248;2023-02-19T09:07:17;101410.72;;;-12.94;75.50
63819;BME280;49970;54.976;73.248;2023-02-19T09:09:47;101409.91;;;-12.93;75.37
63819;BME280;49970;54.976;73.248;2023-02-19T09:12:17;101412.63;;;-12.89;74.55
63819;BME280;49970;54.976;73.248;2023-02-19T09:14:47;101410.97;;;-12.88;74.89
63819;BME280;49970;54.976;73.248;2023-02-19T09:17:29;101409.22;;;-12.89;75.23
63819;BME280;49970;54.976;73.248;2023-02-19T09:20:09;101420.16;;;-12.92;75.19
63819;BME280;49970;54.976;73.248;2023-02-19T09:22:48;101413.41;;;-12.91;74.87
63819;BME280;49970;54.976;73.248;2023-02-19T09:25:17;101416.63;;;-12.95;75.29
63819;BME280;49970;54.976;73.248;2023-02-19T09:27:54;101407.22;;;-12.96;75.38
63819;BME280;49970;54.976;73.248;2023-02-19T09:30:23;101413.00;;;-13.00;74.74
63819;BME280;49970;54.976;73.248;2023-02-19T09:32:52;101415.34;;;-13.05;74.59
63819;BME280;49970;54.976;73.248;2023-02-19T09:35:23;101421.47;;;-13.01;75.05
63819;BME280;49970;54.976;73.248;2023-02-19T09:37:54;101416.56;;;-12.97;75.48
63819;BME280;49970;54.976;73.248;2023-02-19T09:40:24;101420.06;;;-12.95;76.19
63819;BME280;49970;54.976;73.248;2023-02-19T09:42:54;101419.28;;;-12.92;75.85
63819;BME280;49970;54.976;73.248;2023-02-19T09:45:28;101412.63;;;-12.89;75.89
63819;BME280;49970;54.976;73.248;2023-02-19T09:48:00;101410.91;;;-12.90;74.83
63819;BME280;49970;54.976;73.248;2023-02-19T09:50:38;101419.28;;;-12.92;75.93
63819;BME280;49970;54.976;73.248;2023-02-19T09:53:16;101413.19;;;-12.96;75.11
63819;BME280;49970;54.976;73.248;2023-02-19T09:55:48;101411.63;;;-12.92;75.98
63819;BME280;49970;54.976;73.248;2023-02-19T09:58:34;101395.03;;;-13.03;75.47
63819;BME280;49970;54.976;73.248;2023-02-19T10:01:06;101415.72;;;-12.96;75.19
63819;BME280;49970;54.976;73.248;2023-02-19T10:03:38;101401.06;;;-13.01;75.94
63819;BME280;49970;54.976;73.248;2023-02-19T10:09:17;101410.44;;;-13.00;75.35
63819;BME280;49970;54.976;73.248;2023-02-19T10:11:48;101410.44;;;-13.00;75.61
63819;BME280;49970;54.976;73.248;2023-02-19T10:14:38;101401.78;;;-13.04;76.38
63819;BME280;49970;54.976;73.248;2023-02-19T10:17:24;101411.94;;;-13.06;76.55
63819;BME280;49970;54.976;73.248;2023-02-19T10:19:52;101400.69;;;-13.11;76.35
63819;BME280;49970;54.976;73.248;2023-02-19T10:22:22;101395.53;;;-13.12;76.47
63819;BME280;49970;54.976;73.248;2023-02-19T10:24:54;101407.59;;;-13.08;76.79
63819;BME280;49970;54.976;73.248;2023-02-19T10:27:31;101399.25;;;-13.04;75.67
63819;BME280;49970;54.976;73.248;2023-02-19T10:30:01;101406.16;;;-13.01;76.79
63819;BME280;49970;54.976;73.248;2023-02-19T10:32:31;101399.47;;;-12.99;76.38
63819;BME280;49970;54.976;73.248;2023-02-19T10:35:10;101391.91;;;-12.96;76.34
63819;BME280;49970;54.976;73.248;2023-02-19T10:37:58;101401.25;;;-12.97;75.71
63819;BME280;49970;54.976;73.248;2023-02-19T10:40:27;101394.47;;;-12.96;76.72
63819;BME280;49970;54.976;73.248;2023-02-19T10:42:58;101383.09;;;-13.05;76.81
63819;BME280;49970;54.976;73.248;2023-02-19T10:45:48;101402.78;;;-13.00;75.91
63819;BME280;49970;54.976;73.248;2023-02-19T10:48:38;101401.06;;;-13.01;76.24
63819;BME280;49970;54.976;73.248;2023-02-19T10:51:16;101395.03;;;-13.03;76.58
63819;BME280;49970;54.976;73.248;2023-02-19T10:54:15;101394.16;;;-13.04;76.11
63819;BME280;49970;54.976;73.248;2023-02-19T10:57:40;101399.19;;;-13.06;76.38
63819;BME280;49970;54.976;73.248;2023-02-19T10:59:52;101392.31;;;-13.08;76.49
63819;BME280;49970;54.976;73.248;2023-02-19T11:02:32;101387.88;;;-13.12;76.44
63819;BME280;49970;54.976;73.248;2023-02-19T11:05:21;101381.78;;;-13.16;77.29
63819;BME280;49970;54.976;73.248;2023-02-19T11:08:56;101381.66;;;-13.19;77.42
63819;BME280;49970;54.976;73.248;2023-02-19T11:11:37;101382.31;;;-13.24;76.52
63819;BME280;49970;54.976;73.248;2023-02-19T11:14:29;101384.94;;;-13.21;76.52
63819;BME280;49970;54.976;73.248;2023-02-19T11:16:58;101383.22;;;-13.22;77.56
63819;BME280;49970;54.976;73.248;2023-02-19T11:19:38;101380.63;;;-13.24;77.87
63819;BME280;49970;54.976;73.248;2023-02-19T11:25:21;101378.63;;;-13.31;77.44
63819;BME280;49970;54.976;73.248;2023-02-19T11:30:53;101375.38;;;-13.27;78.54
63819;BME280;49970;54.976;73.248;2023-02-19T11:33:29;101371.97;;;-13.27;77.28
63819;BME280;49970;54.976;73.248;2023-02-19T11:38:41;101377.22;;;-13.24;77.29
63819;BME280;49970;54.976;73.248;2023-02-19T11:47:04;101366.22;;;-13.22;77.05
63819;BME280;49970;54.976;73.248;2023-02-19T11:50:10;101375.59;;;-13.22;77.98
63819;BME280;49970;54.976;73.248;2023-02-19T11:52:51;101376.50;;;-13.20;78.78
63819;BME280;49970;54.976;73.248;2023-02-19T11:59:03;101377.06;;;-13.27;78.60
63819;BME280;49970;54.976;73.248;2023-02-19T12:07:34;101369.25;;;-13.32;78.53
63819;BME280;49970;54.976;73.248;2023-02-19T12:10:21;101369.25;;;-13.32;78.86
63819;BME280;49970;54.976;73.248;2023-02-19T12:29:48;101360.97;;;-13.26;77.90
63819;BME280;49970;54.976;73.248;2023-02-19T12:32:29;101363.50;;;-13.26;79.40
63819;BME280;49970;54.976;73.248;2023-02-19T12:43:18;101367.00;;;-13.24;78.80
63819;BME280;49970;54.976;73.248;2023-02-19T12:46:00;101361.91;;;-13.24;78.14
63819;BME280;49970;54.976;73.248;2023-02-19T12:51:22;101361.09;;;-13.23;78.20
63819;BME280;49970;54.976;73.248;2023-02-19T12:57:14;101364.47;;;-13.24;78.57
63819;BME280;49970;54.976;73.248;2023-02-19T13:02:49;101361.84;;;-13.26;79.52
63819;BME280;49970;54.976;73.248;2023-02-19T13:05:34;101360.22;;;-13.24;78.43
63819;BME280;49970;54.976;73.248;2023-02-19T13:08:33;101367.88;;;-13.24;78.75
63819;BME280;49970;54.976;73.248;2023-02-19T13:11:09;101362.78;;;-13.24;78.60
63819;BME280;49970;54.976;73.248;2023-02-19T13:13:45;101367.94;;;-13.22;78.70
63819;BME280;49970;54.976;73.248;2023-02-19T13:16:15;101360.28;;;-13.22;79.48
63819;BME280;49970;54.976;73.248;2023-02-19T13:18:55;101358.56;;;-13.22;78.84
63819;BME280;49970;54.976;73.248;2023-02-19T13:21:35;101350.03;;;-13.24;78.75
63819;BME280;49970;54.976;73.248;2023-02-19T13:24:36;101362.78;;;-13.24;80.06
63819;BME280;49970;54.976;73.248;2023-02-19T13:38:27;101363.06;;;-13.16;79.80
63819;BME280;49970;54.976;73.248;2023-02-19T13:40:57;101362.25;;;-13.15;79.64
63819;BME280;49970;54.976;73.248;2023-02-19T13:43:35;101357.16;;;-13.15;79.57
63819;BME280;49970;54.976;73.248;2023-02-19T13:46:10;101363.25;;;-13.12;78.87
63819;BME280;49970;54.976;73.248;2023-02-19T13:48:41;101364.13;;;-13.11;79.11
63819;BME280;49970;54.976;73.248;2023-02-19T14:14:42;101370.28;;;-13.06;80.91
63819;BME280;49970;54.976;73.248;2023-02-19T14:17:28;101353.97;;;-13.10;80.93
63819;BME280;49970;54.976;73.248;2023-02-19T14:33:30;101362.41;;;-12.91;81.72
63819;BME280;49970;54.976;73.248;2023-02-19T14:36:05;101360.75;;;-12.89;80.88
63819;BME280;49970;54.976;73.248;2023-02-19T14:38:38;101355.66;;;-12.89;80.66
63819;BME280;49970;54.976;73.248;2023-02-19T14:41:13;101354.94;;;-12.87;82.17
63819;BME280;49970;54.976;73.248;2023-02-19T14:43:48;101352.44;;;-12.85;81.40
63819;BME280;49970;54.976;73.248;2023-02-19T14:46:36;101351.59;;;-12.84;81.57
63819;BME280;49970;54.976;73.248;2023-02-19T14:51:58;101354.25;;;-12.83;82.77
63819;BME280;49970;54.976;73.248;2023-02-19T14:54:49;101352.56;;;-12.82;81.59
63819;BME280;49970;54.976;73.248;2023-02-19T14:57:21;101347.47;;;-12.82;81.62
63819;BME280;49970;54.976;73.248;2023-02-19T14:59:57;101352.59;;;-12.81;82.94
63819;BME280;49970;54.976;73.248;2023-02-19T15:02:30;101343.34;;;-12.78;81.81
63819;BME280;49970;54.976;73.248;2023-02-19T15:05:16;101345.94;;;-12.77;82.11
63819;BME280;49970;54.976;73.248;2023-02-19T15:07:43;101341.53;;;-12.81;82.95
63819;BME280;49970;54.976;73.248;2023-02-19T15:10:11;101348.50;;;-12.77;82.72
63819;BME280;49970;54.976;73.248;2023-02-19T15:13:02;101340.03;;;-12.76;82.89
63819;BME280;49970;54.976;73.248;2023-02-19T15:15:32;101344.31;;;-12.75;82.21
63819;BME280;49970;54.976;73.248;2023-02-19T15:18:02;101341.84;;;-12.73;82.01
63819;BME280;49970;54.976;73.248;2023-02-19T15:20:35;101345.31;;;-12.71;82.68
63819;BME280;49970;54.976;73.248;2023-02-19T15:23:15;101341.84;;;-12.73;83.11
63819;BME280;49970;54.976;73.248;2023-02-19T15:25:55;101345.25;;;-12.73;82.65
63819;BME280;49970;54.976;73.248;2023-02-19T15:33:22;101342.84;;;-12.70;83.48
63819;BME280;49970;54.976;73.248;2023-02-19T15:35:51;101349.69;;;-12.69;83.18
63819;BME280;49970;54.976;73.248;2023-02-19T15:38:18;101345.50;;;-12.67;83.20
63819;BME280;49970;54.976;73.248;2023-02-19T15:40:45;101340.47;;;-12.65;82.83